Time;durP1;ratioP1;P1;durP2;ratioP2;P2;SDS_P1;SDS_P2;PMS_P1;PMS_P2;Temp;Humidity;BMP_temperature;BMP_pressure;BME280_temperature;BME280_humidity;BME280_pressure;Samples;Min_cycle;Max_cycle;Signal;HPM_P1;HPM_P2
2023/10/03 00:00:04;;;;;;;21.20;13.02;;;19.50;99.90;;;;;;5075444;28;20467;-83
2023/10/03 00:02:30;;;;;;;19.88;12.88;;;19.50;99.90;;;;;;5059017;28;20111;-83
2023/10/03 00:04:56;;;;;;;22.63;13.57;;;19.50;99.90;;;;;;5041787;28;20380;-83
2023/10/03 00:07:21;;;;;;;22.40;13.80;;;19.50;99.90;;;;;;5057559;28;20036;-83
2023/10/03 00:09:47;;;;;;;24.48;13.98;;;19.50;99.90;;;;;;5066186;28;20021;-82
2023/10/03 00:12:13;;;;;;;25.65;14.07;;;19.50;99.90;;;;;;5050576;28;20027;-83
2023/10/03 00:14:38;;;;;;;23.23;12.88;;;19.50;99.90;;;;;;5075637;28;20028;-82
2023/10/03 00:17:04;;;;;;;21.98;13.55;;;19.50;99.90;;;;;;5073240;28;20377;-83
2023/10/03 00:19:30;;;;;;;22.27;13.20;;;19.50;99.90;;;;;;5059415;28;20047;-83
2023/10/03 00:21:55;;;;;;;24.38;14.10;;;19.50;99.90;;;;;;5060972;28;20038;-83
2023/10/03 00:24:21;;;;;;;22.50;14.30;;;19.50;99.90;;;;;;5059517;28;20021;-83
2023/10/03 00:26:46;;;;;;;24.52;13.70;;;19.50;99.90;;;;;;5050123;28;20521;-83
2023/10/03 00:29:21;;;;;;;23.10;13.55;;;19.50;99.90;;;;;;5048433;28;20044;-83
2023/10/03 00:31:46;;;;;;;21.67;13.07;;;19.50;99.90;;;;;;5105153;28;20020;-83
2023/10/03 00:34:13;;;;;;;22.20;13.23;;;19.50;99.90;;;;;;5104221;28;20044;-82
2023/10/03 00:36:38;;;;;;;23.45;13.13;;;19.50;99.90;;;;;;5080007;28;20020;-82
2023/10/03 00:39:06;;;;;;;22.88;13.68;;;19.50;99.90;;;;;;5104023;28;20039;-84
2023/10/03 00:41:34;;;;;;;22.15;13.32;;;19.50;99.90;;;;;;5091353;28;20036;-83
2023/10/03 00:44:03;;;;;;;22.67;13.50;;;19.50;99.90;;;;;;5076863;28;20446;-82
2023/10/03 00:46:30;;;;;;;22.15;12.93;;;19.50;99.90;;;;;;5060176;28;20009;-83
2023/10/03 00:48:56;;;;;;;24.50;14.57;;;19.50;99.90;;;;;;5078692;28;20044;-83
2023/10/03 00:51:24;;;;;;;25.33;14.50;;;19.40;99.90;;;;;;5088570;28;20043;-83
2023/10/03 00:53:55;;;;;;;23.30;13.75;;;19.40;99.90;;;;;;5075922;28;20042;-82
2023/10/03 00:56:22;;;;;;;24.98;14.32;;;19.50;99.90;;;;;;5096610;28;20120;-83
2023/10/03 00:58:48;;;;;;;26.48;14.90;;;19.50;99.90;;;;;;5058278;28;20029;-83
2023/10/03 01:01:15;;;;;;;23.50;13.63;;;19.50;99.90;;;;;;5069828;28;20051;-82
2023/10/03 01:03:40;;;;;;;25.08;14.55;;;19.50;99.90;;;;;;5062391;28;20032;-83
2023/10/03 01:06:12;;;;;;;25.67;13.98;;;19.40;99.90;;;;;;5061153;28;20020;-83
2023/10/03 01:08:43;;;;;;;26.35;15.45;;;19.50;99.90;;;;;;5090199;28;20132;-83
2023/10/03 01:11:17;;;;;;;24.75;14.43;;;19.40;99.90;;;;;;5095615;28;20024;-83
2023/10/03 01:13:48;;;;;;;24.58;14.00;;;19.50;99.90;;;;;;5085829;28;20027;-83
2023/10/03 01:16:27;;;;;;;24.38;14.13;;;19.50;99.90;;;;;;5076192;28;20078;-82
2023/10/03 01:18:53;;;;;;;25.98;14.40;;;19.50;99.90;;;;;;5075956;28;20035;-83
2023/10/03 01:21:21;;;;;;;28.35;15.27;;;19.50;99.90;;;;;;5080319;28;20029;-83
2023/10/03 01:23:47;;;;;;;26.80;14.32;;;19.50;99.90;;;;;;5067460;28;20099;-83
2023/10/03 01:26:14;;;;;;;25.80;15.85;;;19.50;99.90;;;;;;5060892;28;20024;-83
2023/10/03 01:28:40;;;;;;;27.95;15.70;;;19.50;99.90;;;;;;5076819;28;20109;-83
2023/10/03 01:31:06;;;;;;;25.60;15.30;;;19.50;99.90;;;;;;5095003;28;20373;-83
2023/10/03 01:33:32;;;;;;;25.98;15.05;;;19.50;99.90;;;;;;5061167;28;20063;-82
2023/10/03 01:36:02;;;;;;;25.98;15.23;;;19.50;99.90;;;;;;5060921;28;20028;-83
2023/10/03 01:38:28;;;;;;;27.33;15.73;;;19.60;99.90;;;;;;5057922;28;20460;-83
2023/10/03 01:40:57;;;;;;;25.70;14.20;;;19.60;99.90;;;;;;5059494;28;20044;-83
2023/10/03 01:43:22;;;;;;;25.90;14.95;;;19.60;99.90;;;;;;5057908;28;20087;-83
2023/10/03 01:45:49;;;;;;;27.27;14.77;;;19.60;99.90;;;;;;5060798;28;20024;-82
2023/10/03 01:48:17;;;;;;;24.70;14.90;;;19.60;99.90;;;;;;5095250;28;20067;-83
2023/10/03 01:50:43;;;;;;;26.15;14.93;;;19.60;99.90;;;;;;5070323;28;20103;-83
2023/10/03 01:53:08;;;;;;;26.13;15.18;;;19.50;99.90;;;;;;5095178;28;20104;-83
2023/10/03 01:55:35;;;;;;;23.83;14.18;;;19.50;99.90;;;;;;5075223;28;20035;-83
2023/10/03 01:58:00;;;;;;;23.17;13.85;;;19.50;99.90;;;;;;5056947;28;20024;-83
2023/10/03 02:00:26;;;;;;;26.52;15.00;;;19.50;99.90;;;;;;5062865;28;20035;-83
2023/10/03 02:03:05;;;;;;;26.20;14.93;;;19.50;99.90;;;;;;5077364;28;20032;-83
2023/10/03 02:05:38;;;;;;;26.08;15.30;;;19.50;99.90;;;;;;5077168;28;20031;-83
2023/10/03 02:08:07;;;;;;;26.42;13.90;;;19.50;99.90;;;;;;5055112;28;20033;-83
2023/10/03 02:10:34;;;;;;;27.10;15.07;;;19.50;99.90;;;;;;5083848;28;20029;-83
2023/10/03 02:13:06;;;;;;;25.65;14.23;;;19.50;99.90;;;;;;5066844;28;20035;-83
2023/10/03 02:15:32;;;;;;;25.48;14.90;;;19.50;99.90;;;;;;5061724;28;20028;-83
2023/10/03 02:17:58;;;;;;;25.75;14.90;;;19.50;99.90;;;;;;5095116;28;20032;-82
2023/10/03 02:20:30;;;;;;;24.95;14.30;;;19.50;99.90;;;;;;5087470;28;20021;-83
2023/10/03 02:22:57;;;;;;;27.40;14.43;;;19.50;99.90;;;;;;5068636;28;20076;-82
2023/10/03 02:25:29;;;;;;;23.00;14.05;;;19.50;99.90;;;;;;5118923;28;20016;-83
2023/10/03 02:27:56;;;;;;;25.98;15.13;;;19.60;99.90;;;;;;5086271;28;20027;-82
2023/10/03 02:30:23;;;;;;;24.85;14.15;;;19.60;99.90;;;;;;5088449;28;20038;-83
2023/10/03 02:32:54;;;;;;;27.95;14.73;;;19.60;99.90;;;;;;5084894;28;20024;-82
2023/10/03 02:35:24;;;;;;;23.30;13.88;;;19.60;99.90;;;;;;5080713;28;20044;-83
2023/10/03 02:37:57;;;;;;;24.13;14.43;;;19.60;99.90;;;;;;5052176;28;20033;-83
2023/10/03 02:40:26;;;;;;;24.52;14.57;;;19.60;99.90;;;;;;5057255;28;20044;-83
2023/10/03 02:42:54;;;;;;;25.55;14.00;;;19.70;99.90;;;;;;5074749;28;20017;-83
2023/10/03 02:45:23;;;;;;;22.92;14.13;;;19.70;99.90;;;;;;5046625;28;20046;-83
2023/10/03 02:47:51;;;;;;;25.10;13.38;;;19.70;99.90;;;;;;5040189;28;20040;-83
2023/10/03 02:50:17;;;;;;;23.90;14.15;;;19.70;99.90;;;;;;5067280;28;20012;-84
2023/10/03 02:52:45;;;;;;;25.80;14.82;;;19.70;99.90;;;;;;5076073;28;20039;-83
2023/10/03 02:55:15;;;;;;;25.65;14.13;;;19.70;99.90;;;;;;5075883;28;20430;-83
2023/10/03 02:57:41;;;;;;;25.63;13.77;;;19.80;99.90;;;;;;5076721;28;20034;-83
2023/10/03 03:00:16;;;;;;;26.50;14.77;;;19.80;99.90;;;;;;5059196;28;20115;-83
2023/10/03 03:02:46;;;;;;;23.77;13.63;;;19.80;99.90;;;;;;5060630;28;20120;-84
2023/10/03 03:05:15;;;;;;;24.33;14.43;;;19.80;99.90;;;;;;5073798;28;20127;-83
2023/10/03 03:07:46;;;;;;;25.38;14.30;;;19.80;99.90;;;;;;5076070;28;20040;-83
2023/10/03 03:10:17;;;;;;;;;;;19.80;99.90;;;;;;5059576;28;20016;-83
2023/10/03 03:12:43;;;;;;;23.95;14.00;;;19.80;99.90;;;;;;5050632;28;20325;-84
2023/10/03 03:15:22;;;;;;;25.00;13.20;;;19.80;99.90;;;;;;5050821;28;20028;-83
2023/10/03 03:17:51;;;;;;;24.25;12.88;;;19.80;99.90;;;;;;5093950;28;20059;-84
2023/10/03 03:20:25;;;;;;;22.17;12.70;;;19.80;99.90;;;;;;5075480;28;20497;-83
2023/10/03 03:22:52;;;;;;;21.88;13.60;;;19.80;99.90;;;;;;5066997;28;20070;-83
2023/10/03 03:25:24;;;;;;;21.98;12.80;;;19.90;99.90;;;;;;5056467;28;20019;-83
2023/10/03 03:27:53;;;;;;;20.02;12.02;;;19.90;99.90;;;;;;5088151;28;20067;-83
2023/10/03 03:32:54;;;;;;;23.85;13.90;;;19.90;99.90;;;;;;5061662;28;20463;-83
2023/10/03 03:35:23;;;;;;;22.20;13.65;;;19.90;99.90;;;;;;5075137;28;20051;-83
2023/10/03 03:37:48;;;;;;;21.92;12.65;;;19.90;99.90;;;;;;5059361;28;20472;-83
2023/10/03 03:40:29;;;;;;;24.77;12.57;;;19.90;99.90;;;;;;5069416;28;20039;-83
2023/10/03 03:42:58;;;;;;;21.45;13.02;;;20.00;99.90;;;;;;5060928;28;20031;-83
2023/10/03 03:45:27;;;;;;;22.63;13.57;;;20.00;99.90;;;;;;5093340;28;20020;-83
2023/10/03 03:47:54;;;;;;;21.98;12.68;;;19.90;99.90;;;;;;5058978;28;20036;-83
2023/10/03 03:50:21;;;;;;;21.45;13.10;;;20.00;99.90;;;;;;5092698;28;20016;-83
2023/10/03 03:52:49;;;;;;;23.52;13.10;;;20.00;99.90;;;;;;5071519;28;20369;-83
2023/10/03 03:55:18;;;;;;;22.38;12.63;;;20.00;99.90;;;;;;5067712;28;20024;-83
2023/10/03 03:57:51;;;;;;;21.75;13.40;;;20.00;99.90;;;;;;5075606;28;20024;-83
2023/10/03 04:00:21;;;;;;;22.17;12.00;;;20.00;99.90;;;;;;5055192;28;20461;-84
2023/10/03 04:02:48;;;;;;;20.08;11.68;;;20.00;99.90;;;;;;5088829;28;20035;-83
2023/10/03 04:05:17;;;;;;;22.00;12.20;;;20.00;99.90;;;;;;5075314;28;20468;-84
2023/10/03 04:07:42;;;;;;;22.45;12.30;;;20.00;99.90;;;;;;5042907;28;20040;-83
2023/10/03 04:10:13;;;;;;;18.27;10.95;;;20.00;99.90;;;;;;5093681;28;20020;-83
2023/10/03 04:12:42;;;;;;;;;;;20.00;99.90;;;;;;5094372;28;20020;-83
2023/10/03 04:15:13;;;;;;;17.08;10.13;;;20.00;99.90;;;;;;5071464;28;20024;-83
2023/10/03 04:17:40;;;;;;;16.92;9.38;;;20.00;99.90;;;;;;5059260;28;20028;-83
2023/10/03 04:20:18;;;;;;;15.93;9.68;;;20.00;99.90;;;;;;5079607;28;20025;-83
2023/10/03 04:22:48;;;;;;;15.85;9.68;;;20.10;99.90;;;;;;5100351;28;20036;-83
2023/10/03 04:25:14;;;;;;;17.52;10.38;;;20.10;99.90;;;;;;5083931;28;20008;-83
2023/10/03 04:27:40;;;;;;;19.27;11.13;;;20.10;99.90;;;;;;5100057;28;20055;-80
2023/10/03 04:30:11;;;;;;;19.63;10.55;;;20.10;99.90;;;;;;5097727;28;20048;-82
2023/10/03 04:32:39;;;;;;;17.95;10.25;;;20.10;99.90;;;;;;5088740;28;20039;-83
2023/10/03 04:35:05;;;;;;;18.95;10.70;;;20.10;99.90;;;;;;5058643;28;20406;-83
2023/10/03 04:37:31;;;;;;;18.40;10.10;;;20.10;99.90;;;;;;5055693;28;20040;-84
2023/10/03 04:39:57;;;;;;;19.45;10.75;;;20.10;99.90;;;;;;5062562;28;20036;-83
2023/10/03 04:42:22;;;;;;;17.30;9.93;;;20.10;99.90;;;;;;5049991;28;20082;-83
2023/10/03 04:44:48;;;;;;;16.05;9.05;;;20.10;99.90;;;;;;5050888;28;20041;-84
2023/10/03 04:47:14;;;;;;;19.30;9.95;;;20.10;99.90;;;;;;5054228;28;20025;-83
2023/10/03 04:49:40;;;;;;;14.80;8.60;;;20.10;99.90;;;;;;5045900;28;20032;-83
2023/10/03 04:52:07;;;;;;;14.45;8.15;;;20.10;99.90;;;;;;5050911;28;20020;-83
2023/10/03 04:54:34;;;;;;;13.65;7.80;;;20.10;99.90;;;;;;5073292;28;20024;-85
2023/10/03 04:56:59;;;;;;;13.90;7.47;;;20.10;99.90;;;;;;5059168;28;20055;-84
2023/10/03 04:59:25;;;;;;;12.57;6.70;;;20.10;99.90;;;;;;5058274;28;20380;-83
2023/10/03 05:01:51;;;;;;;10.80;5.95;;;20.10;99.90;;;;;;5069742;28;20032;-83
2023/10/03 05:04:17;;;;;;;11.55;5.65;;;20.10;99.90;;;;;;5077812;28;20055;-83
2023/10/03 05:06:43;;;;;;;9.50;5.63;;;20.10;99.90;;;;;;5044764;28;20032;-83
2023/10/03 05:09:09;;;;;;;9.02;5.38;;;20.00;99.90;;;;;;5070394;28;20020;-83
2023/10/03 05:11:35;;;;;;;9.18;4.53;;;20.00;99.90;;;;;;5058137;28;20150;-83
2023/10/03 05:14:01;;;;;;;7.60;4.30;;;20.00;99.90;;;;;;5070022;28;20024;-83
2023/10/03 05:16:26;;;;;;;8.65;4.07;;;19.90;99.90;;;;;;5041505;28;20097;-83
2023/10/03 05:18:52;;;;;;;7.30;4.45;;;19.90;99.90;;;;;;5058224;28;20492;-83
2023/10/03 05:21:18;;;;;;;8.63;4.03;;;19.90;99.90;;;;;;5041326;28;20392;-84
2023/10/03 05:23:47;;;;;;;11.30;4.57;;;19.90;99.90;;;;;;5049954;28;20082;-84
2023/10/03 05:26:19;;;;;;;8.77;3.85;;;19.90;99.90;;;;;;5061997;28;20016;-83
2023/10/03 05:28:45;;;;;;;12.27;4.68;;;19.90;99.90;;;;;;5050143;28;20067;-84
2023/10/03 05:31:14;;;;;;;7.22;4.15;;;19.90;99.90;;;;;;5090252;28;20080;-83
2023/10/03 05:33:42;;;;;;;6.68;3.65;;;19.90;99.90;;;;;;5049109;28;20039;-83
2023/10/03 05:36:15;;;;;;;7.68;3.75;;;19.80;99.90;;;;;;5068511;28;20375;-83
2023/10/03 05:38:42;;;;;;;7.05;3.20;;;19.90;99.90;;;;;;5058026;28;20640;-83
2023/10/03 05:41:21;;;;;;;5.13;3.40;;;19.80;99.90;;;;;;5055423;28;20026;-83
2023/10/03 05:43:47;;;;;;;6.63;3.75;;;19.80;99.90;;;;;;5067413;28;20027;-82
2023/10/03 05:46:12;;;;;;;6.85;3.58;;;19.80;99.90;;;;;;5068093;28;20065;-83
2023/10/03 05:48:38;;;;;;;4.80;3.10;;;19.80;99.90;;;;;;5060801;28;20070;-83
2023/10/03 05:51:05;;;;;;;5.78;3.33;;;19.80;99.90;;;;;;5044169;28;20376;-83
2023/10/03 05:53:32;;;;;;;8.75;3.22;;;19.90;99.90;;;;;;5085666;28;20369;-83
2023/10/03 05:55:58;;;;;;;7.65;3.53;;;19.80;99.90;;;;;;5041699;28;20036;-83
2023/10/03 05:58:24;;;;;;;5.88;3.40;;;19.80;99.90;;;;;;5044123;28;20024;-83
2023/10/03 06:00:50;;;;;;;5.70;3.45;;;19.80;99.90;;;;;;5077294;28;20039;-83
2023/10/03 06:03:16;;;;;;;7.65;3.85;;;19.80;99.90;;;;;;5041744;28;20490;-83
2023/10/03 06:05:46;;;;;;;5.93;3.70;;;19.80;99.90;;;;;;5042642;28;20047;-83
2023/10/03 06:08:12;;;;;;;6.43;3.50;;;19.80;99.90;;;;;;5060305;28;20079;-83
2023/10/03 06:10:38;;;;;;;6.28;3.60;;;19.80;99.90;;;;;;5037737;28;20008;-84
2023/10/03 06:13:09;;;;;;;6.88;3.80;;;19.80;99.90;;;;;;5076940;28;20084;-84
2023/10/03 06:15:37;;;;;;;6.20;3.67;;;19.80;99.90;;;;;;5079029;28;20028;-83
2023/10/03 06:18:04;;;;;;;6.63;3.60;;;19.80;99.90;;;;;;5057707;28;20032;-83
2023/10/03 06:20:30;;;;;;;10.90;3.70;;;19.80;99.90;;;;;;5063735;28;20094;-84
2023/10/03 06:22:56;;;;;;;6.47;3.72;;;19.80;99.90;;;;;;5044273;28;20024;-83
2023/10/03 06:25:23;;;;;;;6.68;3.70;;;19.80;99.90;;;;;;5045431;28;20020;-83
2023/10/03 06:27:48;;;;;;;4.95;3.53;;;19.80;99.90;;;;;;5052014;28;20334;-83
2023/10/03 06:30:14;;;;;;;4.88;3.63;;;19.70;99.90;;;;;;5058869;28;20060;-83
2023/10/03 06:32:41;;;;;;;5.85;3.38;;;19.80;99.90;;;;;;5039800;28;20362;-83
2023/10/03 06:35:09;;;;;;;7.18;3.78;;;19.80;99.90;;;;;;5043300;28;20016;-83
2023/10/03 06:37:35;;;;;;;6.03;3.67;;;19.80;99.90;;;;;;5094481;28;20043;-83
2023/10/03 06:40:06;;;;;;;6.50;3.65;;;19.80;99.90;;;;;;5063960;28;20028;-83
2023/10/03 06:42:35;;;;;;;5.72;3.78;;;19.80;99.90;;;;;;5048347;28;20028;-83
2023/10/03 06:45:03;;;;;;;5.78;3.80;;;19.80;99.90;;;;;;5058382;28;20388;-83
2023/10/03 06:47:29;;;;;;;5.95;3.35;;;19.80;99.90;;;;;;5051802;28;20090;-84
2023/10/03 06:49:55;;;;;;;6.00;3.97;;;19.80;99.90;;;;;;5056249;28;20032;-83
2023/10/03 06:52:21;;;;;;;6.13;3.67;;;19.80;99.90;;;;;;5056483;28;20465;-84
2023/10/03 06:54:47;;;;;;;6.25;4.00;;;19.80;99.90;;;;;;5075851;28;20030;-83
2023/10/03 06:57:13;;;;;;;8.90;4.22;;;19.90;99.90;;;;;;5054001;28;20542;-84
2023/10/03 06:59:39;;;;;;;4.55;3.80;;;19.90;99.90;;;;;;5040059;28;20028;-83
2023/10/03 07:02:08;;;;;;;5.50;3.72;;;19.90;99.90;;;;;;5039598;28;20483;-83
2023/10/03 07:04:34;;;;;;;5.25;3.63;;;19.90;99.90;;;;;;5093332;28;20024;-84
2023/10/03 07:06:59;;;;;;;5.68;3.58;;;19.90;99.90;;;;;;5075751;28;20091;-83
2023/10/03 07:09:25;;;;;;;7.45;4.22;;;19.90;99.90;;;;;;5061227;28;20042;-83
2023/10/03 07:11:52;;;;;;;5.55;3.40;;;19.90;99.90;;;;;;5055782;28;20124;-83
2023/10/03 07:14:19;;;;;;;4.55;3.30;;;19.90;99.90;;;;;;5023293;28;20029;-83
2023/10/03 07:16:46;;;;;;;5.15;3.80;;;20.00;99.90;;;;;;5061822;28;20028;-83
2023/10/03 07:19:14;;;;;;;7.32;3.88;;;20.00;99.90;;;;;;5039322;28;20029;-83
2023/10/03 07:21:40;;;;;;;5.40;3.60;;;20.10;99.90;;;;;;5042815;28;20405;-83
2023/10/03 07:24:06;;;;;;;7.88;4.07;;;20.10;99.90;;;;;;5058443;28;20020;-83
2023/10/03 07:26:32;;;;;;;7.78;4.15;;;20.10;99.90;;;;;;5038171;28;20027;-83
2023/10/03 07:28:59;;;;;;;6.78;4.15;;;20.20;99.90;;;;;;5042019;28;20047;-83
2023/10/03 07:31:25;;;;;;;5.93;4.50;;;20.10;99.90;;;;;;5055447;28;20041;-83
2023/10/03 07:33:52;;;;;;;5.28;3.97;;;20.10;99.90;;;;;;5051205;28;20028;-83
2023/10/03 07:36:18;;;;;;;7.13;4.40;;;20.10;99.90;;;;;;5075764;28;20024;-83
2023/10/03 07:38:47;;;;;;;5.13;3.92;;;20.20;99.90;;;;;;5084776;28;20030;-84
2023/10/03 07:41:15;;;;;;;4.68;3.53;;;20.20;99.90;;;;;;5056455;28;20419;-83
2023/10/03 07:43:41;;;;;;;5.75;3.95;;;20.20;99.90;;;;;;5055518;28;20024;-83
2023/10/03 07:46:07;;;;;;;6.43;4.20;;;20.20;99.90;;;;;;5066469;28;20031;-83
2023/10/03 07:48:32;;;;;;;7.50;3.90;;;20.20;99.90;;;;;;5058899;28;20126;-83
2023/10/03 07:50:58;;;;;;;5.45;3.60;;;20.10;99.90;;;;;;5042061;28;20032;-83
2023/10/03 07:53:29;;;;;;;5.75;3.88;;;20.10;99.90;;;;;;5060922;28;20027;-83
2023/10/03 07:55:56;;;;;;;8.02;3.83;;;20.00;99.90;;;;;;5063007;28;20111;-83
2023/10/03 07:58:22;;;;;;;5.50;3.40;;;20.00;99.90;;;;;;5047096;28;20104;-83
2023/10/03 08:00:49;;;;;;;5.75;3.25;;;20.00;99.90;;;;;;5082568;28;20060;-82
2023/10/03 08:03:15;;;;;;;5.10;2.72;;;19.90;99.90;;;;;;5069626;28;20031;-83
2023/10/03 08:05:41;;;;;;;5.63;2.97;;;19.90;99.90;;;;;;5096866;28;20032;-84
2023/10/03 08:08:08;;;;;;;3.25;2.03;;;19.90;99.90;;;;;;5079729;28;20061;-83
2023/10/03 08:10:33;;;;;;;4.32;2.55;;;19.90;99.90;;;;;;5111859;28;20137;-83
2023/10/03 08:12:59;;;;;;;2.53;1.88;;;19.90;99.90;;;;;;5057159;28;20578;-83
2023/10/03 08:15:31;;;;;;;4.20;2.25;;;19.80;99.90;;;;;;5102389;28;20103;-83
2023/10/03 08:17:58;;;;;;;4.35;2.35;;;19.80;99.90;;;;;;5059918;28;20028;-83
2023/10/03 08:20:25;;;;;;;5.78;2.38;;;19.80;99.90;;;;;;5059062;28;20119;-83
2023/10/03 08:22:51;;;;;;;3.42;2.10;;;19.80;99.90;;;;;;5075235;28;20020;-83
2023/10/03 08:25:21;;;;;;;5.93;2.22;;;19.80;99.90;;;;;;5075086;28;20085;-83
2023/10/03 08:27:52;;;;;;;3.15;1.58;;;19.80;99.90;;;;;;5075214;28;20518;-84
2023/10/03 08:30:38;;;;;;;3.38;1.80;;;19.80;99.90;;;;;;5075003;28;20063;-83
2023/10/03 08:33:07;;;;;;;4.80;1.73;;;19.80;99.90;;;;;;5074863;28;20055;-83
2023/10/03 08:35:37;;;;;;;3.63;1.50;;;19.80;99.90;;;;;;5059585;28;20028;-83
2023/10/03 08:38:13;;;;;;;1.80;1.02;;;19.80;99.90;;;;;;5077972;28;20519;-83
2023/10/03 08:40:41;;;;;;;3.67;1.33;;;19.70;99.90;;;;;;5062735;28;20048;-84
2023/10/03 08:43:09;;;;;;;4.40;1.90;;;19.70;99.90;;;;;;5078900;28;20495;-82
2023/10/03 08:45:40;;;;;;;4.35;1.30;;;19.70;99.90;;;;;;5078878;28;20460;-83
2023/10/03 08:48:06;;;;;;;2.72;1.27;;;19.70;99.90;;;;;;5078551;28;20024;-83
2023/10/03 08:50:46;;;;;;;3.65;1.27;;;19.70;99.90;;;;;;5062086;28;20020;-83
2023/10/03 08:53:13;;;;;;;3.92;1.20;;;19.70;99.90;;;;;;5078682;28;20024;-83
2023/10/03 08:55:48;;;;;;;4.53;1.63;;;19.70;99.90;;;;;;5061949;28;20063;-84
2023/10/03 08:58:25;;;;;;;4.10;1.35;;;19.60;99.90;;;;;;5079470;28;20028;-84
2023/10/03 09:00:58;;;;;;;2.67;1.33;;;19.50;99.90;;;;;;5079766;28;20036;-84
2023/10/03 09:03:25;;;;;;;1.17;1.02;;;19.50;99.90;;;;;;5079807;28;20020;-83
2023/10/03 09:05:51;;;;;;;4.55;1.58;;;19.40;99.90;;;;;;5061774;28;20537;-84
2023/10/03 09:08:17;;;;;;;1.50;1.00;;;19.40;99.90;;;;;;5096681;28;20075;-84
2023/10/03 09:10:55;;;;;;;1.42;0.90;;;19.30;99.90;;;;;;5096617;28;20367;-84
2023/10/03 09:13:27;;;;;;;3.05;0.80;;;19.30;99.90;;;;;;5078712;28;20375;-84
2023/10/03 09:16:02;;;;;;;1.73;1.20;;;19.30;99.90;;;;;;5078227;28;20157;-84
2023/10/03 09:18:40;;;;;;;2.10;1.02;;;19.30;99.90;;;;;;5078567;28;20492;-84
2023/10/03 09:21:06;;;;;;;3.55;1.30;;;19.30;99.90;;;;;;5077997;28;20020;-83
2023/10/03 09:23:39;;;;;;;1.83;0.85;;;19.30;99.90;;;;;;5061560;28;20460;-83
2023/10/03 09:26:08;;;;;;;2.20;0.90;;;19.30;99.90;;;;;;5062389;28;20502;-83
2023/10/03 09:28:37;;;;;;;1.88;0.80;;;19.30;99.90;;;;;;5061502;28;20506;-84
2023/10/03 09:31:08;;;;;;;2.03;0.77;;;19.20;99.90;;;;;;5077867;28;20051;-83
2023/10/03 09:33:40;;;;;;;1.33;0.80;;;19.20;99.90;;;;;;5078008;28;20035;-83
2023/10/03 09:36:07;;;;;;;2.60;0.68;;;19.20;99.90;;;;;;5061197;28;20464;-83
2023/10/03 09:38:44;;;;;;;2.65;0.90;;;19.20;99.90;;;;;;5077637;28;20028;-84
2023/10/03 09:41:17;;;;;;;2.53;0.90;;;19.20;99.90;;;;;;5078107;28;20112;-83
2023/10/03 09:43:56;;;;;;;2.88;0.98;;;19.10;99.90;;;;;;5076304;28;20174;-84
2023/10/03 09:46:23;;;;;;;2.15;0.70;;;19.10;99.90;;;;;;5059588;28;20029;-83
2023/10/03 09:49:08;;;;;;;2.80;0.85;;;19.10;99.90;;;;;;5052853;28;20043;-83
2023/10/03 09:51:45;;;;;;;4.70;1.30;;;19.20;99.90;;;;;;5060510;28;20020;-83
2023/10/03 09:54:14;;;;;;;4.50;0.80;;;19.20;99.90;;;;;;5064006;28;20024;-83
2023/10/03 09:56:47;;;;;;;1.33;0.70;;;19.30;99.90;;;;;;5071610;28;20032;-83
2023/10/03 09:59:17;;;;;;;2.03;0.80;;;19.30;99.90;;;;;;5098419;28;20028;-84
2023/10/03 10:01:45;;;;;;;2.67;1.17;;;19.30;99.90;;;;;;5068917;28;20024;-83
2023/10/03 10:04:15;;;;;;;1.98;0.75;;;19.20;99.90;;;;;;5115511;28;20028;-83
2023/10/03 10:06:47;;;;;;;3.78;0.93;;;19.20;99.90;;;;;;5097039;28;20012;-83
2023/10/03 10:09:27;;;;;;;1.67;0.80;;;19.10;99.90;;;;;;5081889;28;20035;-83
2023/10/03 10:12:29;;;;;;;2.75;0.90;;;19.10;99.90;;;;;;5057748;28;20115;-83
2023/10/03 10:17:49;;;;;;;2.38;0.70;;;19.10;99.90;;;;;;5088908;28;20101;-83
2023/10/03 10:20:37;;;;;;;1.25;0.65;;;19.10;99.90;;;;;;5094839;28;20024;-83
2023/10/03 10:23:04;;;;;;;2.42;0.75;;;19.10;99.90;;;;;;5076411;28;20031;-83
2023/10/03 10:25:33;;;;;;;1.98;0.70;;;19.10;99.90;;;;;;5076644;28;20028;-83
2023/10/03 10:28:06;;;;;;;3.00;0.80;;;19.20;99.90;;;;;;5074109;28;20467;-83
2023/10/03 10:30:33;;;;;;;2.92;0.80;;;19.20;99.90;;;;;;5074509;28;20136;-83
2023/10/03 10:33:18;;;;;;;2.53;0.85;;;19.30;99.90;;;;;;5067515;28;20077;-83
2023/10/03 10:35:54;;;;;;;2.90;0.88;;;19.20;99.90;;;;;;5091654;28;20371;-82
2023/10/03 10:38:21;;;;;;;2.33;0.85;;;19.10;99.90;;;;;;5076494;28;20456;-83
2023/10/03 10:41:09;;;;;;;2.15;0.60;;;19.10;99.90;;;;;;5059968;28;20123;-82
2023/10/03 10:43:34;;;;;;;3.83;0.70;;;19.10;99.90;;;;;;5056088;28;20046;-82
2023/10/03 10:46:39;;;;;;;1.48;0.52;;;19.10;99.90;;;;;;5045870;28;20024;-83
2023/10/03 10:49:25;;;;;;;3.20;0.90;;;19.10;99.90;;;;;;5062005;28;20123;-82
2023/10/03 10:51:57;;;;;;;2.58;0.85;;;19.20;99.90;;;;;;5079068;28;20048;-82
2023/10/03 10:54:24;;;;;;;1.60;0.60;;;19.20;99.90;;;;;;5076654;28;20080;-84
2023/10/03 10:57:04;;;;;;;2.72;0.90;;;19.20;99.90;;;;;;5055150;28;20430;-82
2023/10/03 10:59:32;;;;;;;2.05;0.80;;;19.20;99.90;;;;;;5081085;28;20035;-83
2023/10/03 11:02:01;;;;;;;3.85;1.00;;;19.10;99.90;;;;;;5060223;28;20024;-82
2023/10/03 11:04:34;;;;;;;0.65;0.40;;;19.10;99.90;;;;;;5060386;28;20026;-83
2023/10/03 11:07:00;;;;;;;1.73;0.80;;;19.10;99.90;;;;;;5085721;28;20016;-82
2023/10/03 11:09:26;;;;;;;2.25;0.77;;;19.00;99.90;;;;;;5068821;28;20025;-82
2023/10/03 11:11:51;;;;;;;3.78;0.93;;;18.90;99.90;;;;;;5061707;28;20081;-82
2023/10/03 11:14:31;;;;;;;3.40;0.70;;;18.90;99.90;;;;;;5039068;28;20037;-82
2023/10/03 11:17:01;;;;;;;1.90;0.70;;;18.90;99.90;;;;;;5083688;28;20117;-82
2023/10/03 11:19:31;;;;;;;2.30;0.70;;;18.90;99.90;;;;;;5077422;28;20111;-83
2023/10/03 11:21:57;;;;;;;2.15;0.68;;;18.80;99.90;;;;;;5039680;28;20191;-83
2023/10/03 11:24:24;;;;;;;2.05;0.80;;;18.80;99.90;;;;;;5063926;28;20051;-83
2023/10/03 11:26:55;;;;;;;2.00;0.63;;;18.80;99.90;;;;;;5039360;28;20033;-83
2023/10/03 11:29:40;;;;;;;;;;;18.80;99.90;;;;;;5064171;28;20032;-83
2023/10/03 11:32:32;;;;;;;2.08;0.82;;;18.80;99.90;;;;;;5075852;28;19927;-84
2023/10/03 11:34:58;;;;;;;;;;;18.80;99.90;;;;;;5067880;28;20032;-84
2023/10/03 11:37:44;;;;;;;1.10;0.63;;;18.70;99.90;;;;;;5076625;28;19951;-84
2023/10/03 11:40:13;;;;;;;1.90;0.65;;;18.60;99.90;;;;;;5057938;28;20021;-84
2023/10/03 11:42:52;;;;;;;2.88;0.70;;;18.70;99.90;;;;;;5078566;28;20046;-84
2023/10/03 11:45:28;;;;;;;2.13;1.10;;;18.70;99.90;;;;;;5094725;28;20028;-83
2023/10/03 11:48:00;;;;;;;2.15;1.00;;;18.70;99.90;;;;;;5105017;28;20344;-83
2023/10/03 11:50:26;;;;;;;2.60;1.20;;;18.70;99.90;;;;;;5106962;28;20020;-84
2023/10/03 11:52:59;;;;;;;2.40;1.00;;;18.70;99.90;;;;;;5059439;28;20377;-82
2023/10/03 11:55:31;;;;;;;1.48;1.00;;;18.70;99.90;;;;;;5074418;28;20025;-84
2023/10/03 11:57:57;;;;;;;3.55;1.15;;;18.60;99.90;;;;;;5105274;28;20027;-83
2023/10/03 12:00:24;;;;;;;2.42;1.25;;;18.50;99.90;;;;;;5056069;28;20029;-83
2023/10/03 12:02:51;;;;;;;3.03;1.13;;;18.50;99.90;;;;;;5039191;28;20067;-83
2023/10/03 12:05:17;;;;;;;2.97;0.93;;;18.50;99.90;;;;;;5029044;28;20363;-84
2023/10/03 12:07:47;;;;;;;2.55;1.00;;;18.50;99.90;;;;;;5055132;28;20453;-84
2023/10/03 12:10:13;;;;;;;2.85;1.02;;;18.50;99.90;;;;;;5056257;28;20027;-84
2023/10/03 12:12:39;;;;;;;3.40;1.30;;;18.40;99.90;;;;;;5061101;28;20024;-85
2023/10/03 12:15:12;;;;;;;3.50;1.23;;;18.40;99.90;;;;;;5056216;28;20422;-84
2023/10/03 12:17:42;;;;;;;3.35;1.10;;;18.30;99.90;;;;;;5059935;28;20384;-83
2023/10/03 12:20:12;;;;;;;2.40;1.10;;;18.20;99.90;;;;;;5060866;28;20039;-84
2023/10/03 12:22:39;;;;;;;3.80;1.58;;;18.20;99.90;;;;;;5062558;28;20024;-84
2023/10/03 12:25:06;;;;;;;3.15;1.10;;;18.10;99.90;;;;;;5079159;28;20028;-83
2023/10/03 12:27:31;;;;;;;2.45;1.20;;;18.10;99.90;;;;;;5061910;28;20044;-83
2023/10/03 12:29:57;;;;;;;5.00;1.50;;;18.00;99.90;;;;;;5066592;28;20173;-83
2023/10/03 12:32:23;;;;;;;3.90;1.50;;;17.90;99.90;;;;;;5062230;28;20426;-83
2023/10/03 12:34:48;;;;;;;3.95;1.52;;;17.80;99.90;;;;;;5048483;28;20033;-84
2023/10/03 12:37:17;;;;;;;5.80;1.88;;;17.70;99.90;;;;;;5041931;28;20047;-84
2023/10/03 12:39:43;;;;;;;3.20;1.40;;;17.60;99.90;;;;;;5042476;28;20108;-83
2023/10/03 12:42:09;;;;;;;5.05;2.00;;;17.60;99.90;;;;;;5052707;28;20454;-83
2023/10/03 12:44:34;;;;;;;3.85;1.80;;;17.40;99.90;;;;;;5044058;28;20021;-83
2023/10/03 12:47:00;;;;;;;4.30;1.70;;;17.40;99.90;;;;;;5076663;28;20097;-83
2023/10/03 12:49:26;;;;;;;5.85;1.92;;;17.30;99.90;;;;;;5044848;28;20024;-83
2023/10/03 12:51:52;;;;;;;5.43;1.98;;;17.30;99.90;;;;;;5059069;28;20365;-83
2023/10/03 12:54:18;;;;;;;4.63;1.92;;;17.40;99.90;;;;;;5061694;28;20115;-84